< < Back
Terminal Aerodrome Forecast


Current Version              Previous Versions:   1  2  3  4  5  6  7  8  9  

Terminal Aerodrome Forecast

389
FTUS42 KFFC 172300
TAFCSG
TAF
KCSG 172336Z 1800/1824 34004KT P6SM FEW250
     FM181500 03004KT P6SM FEW040
     FM182000 03005KT P6SM SCT050=

Latest METAR

347
SAUS70 KWBC 181700 RRV
MTRCSG
METAR KCSG 181751Z 04003KT 10SM CLR 29/13 A2996 RMK AO2 SLP142 T02890133
10289 20178 58009


USA.gov is the U.S. government's official web portal to all federal, state and local government web resources and services.